createdAt,value
2023-02-18T00:00:30.485Z,5.29
2023-02-18T00:03:17.637Z,5.31
2023-02-18T00:05:44.472Z,5.30
2023-02-18T00:08:11.601Z,5.26
2023-02-18T00:10:42.016Z,5.26
2023-02-18T00:13:09.645Z,5.26
2023-02-18T00:15:37.761Z,5.35
2023-02-18T00:18:05.668Z,5.39
2023-02-18T00:20:33.696Z,5.39
2023-02-18T00:23:00.833Z,5.36
2023-02-18T00:25:27.744Z,5.39
2023-02-18T00:27:54.970Z,5.41
2023-02-18T00:30:21.934Z,5.43
2023-02-18T00:32:49.061Z,5.47
2023-02-18T00:35:16.069Z,5.52
2023-02-18T00:37:43.213Z,5.54
2023-02-18T00:40:10.385Z,5.55
2023-02-18T00:42:37.566Z,5.59
2023-02-18T00:45:04.813Z,5.60
2023-02-18T00:47:32.006Z,5.61
2023-02-18T00:49:58.909Z,5.65
2023-02-18T00:52:26.178Z,5.63
2023-02-18T00:54:53.077Z,5.65
2023-02-18T00:57:20.237Z,5.60
2023-02-18T00:59:47.170Z,5.57
2023-02-18T01:02:14.357Z,5.55
2023-02-18T01:04:41.279Z,5.56
2023-02-18T01:07:10.466Z,5.55
2023-02-18T01:09:37.385Z,5.61
2023-02-18T01:12:04.825Z,5.67
2023-02-18T01:14:31.703Z,5.71
2023-02-18T01:16:58.940Z,5.75
2023-02-18T01:19:25.874Z,5.79
2023-02-18T01:21:53.037Z,5.76
2023-02-18T01:24:20.162Z,5.83
2023-02-18T01:26:47.381Z,5.82
2023-02-18T01:29:14.329Z,5.83
2023-02-18T01:31:41.553Z,5.79
2023-02-18T01:34:08.651Z,5.76
2023-02-18T01:36:35.862Z,5.80
2023-02-18T01:39:02.740Z,5.80
2023-02-18T01:41:29.993Z,5.84
2023-02-18T01:44:18.568Z,5.86
2023-02-18T01:46:45.974Z,5.91
2023-02-18T01:49:20.045Z,5.96
2023-02-18T01:51:51.555Z,6.30
2023-02-18T01:54:34.280Z,6.61
2023-02-18T01:57:12.492Z,6.81
2023-02-18T01:59:47.270Z,6.92
2023-02-18T02:02:19.376Z,6.97
2023-02-18T02:04:46.457Z,7.09
2023-02-18T02:07:14.295Z,7.16
2023-02-18T02:09:43.029Z,7.23
2023-02-18T02:12:13.019Z,7.39
2023-02-18T02:14:58.022Z,7.43
2023-02-18T02:17:40.348Z,7.46
2023-02-18T02:20:28.914Z,7.62
2023-02-18T02:23:28.235Z,7.55
2023-02-18T02:26:13.688Z,7.57
2023-02-18T02:29:14.601Z,7.61
2023-02-18T02:32:18.024Z,7.60
2023-02-18T02:34:53.448Z,7.69
2023-02-18T02:37:44.855Z,7.81
2023-02-18T02:43:32.102Z,7.79
2023-02-18T02:46:19.718Z,7.76
2023-02-18T02:49:08.106Z,7.70
2023-02-18T02:51:46.624Z,7.70
2023-02-18T02:54:21.740Z,7.69
2023-02-18T02:56:49.712Z,7.67
2023-02-18T02:59:20.735Z,7.63
2023-02-18T03:02:15.376Z,7.64
2023-02-18T03:04:54.459Z,7.58
2023-02-18T03:07:21.641Z,7.56
2023-02-18T03:10:03.366Z,7.56
2023-02-18T03:12:49.777Z,7.51
2023-02-18T03:15:35.273Z,7.58
2023-02-18T03:31:54.562Z,7.60
2023-02-18T03:34:34.455Z,7.47
2023-02-18T03:37:02.089Z,7.39
2023-02-18T03:39:33.031Z,7.19
2023-02-18T03:42:00.234Z,7.23
2023-02-18T03:44:27.363Z,7.17
2023-02-18T03:46:54.601Z,7.10
2023-02-18T03:49:21.849Z,7.13
2023-02-18T03:51:48.869Z,7.05
2023-02-18T03:54:16.180Z,6.99
2023-02-18T03:56:43.391Z,6.92
2023-02-18T03:59:12.037Z,6.97
2023-02-18T04:01:39.285Z,7.00
2023-02-18T04:04:06.594Z,6.89
2023-02-18T04:06:33.629Z,6.88
2023-02-18T04:09:00.807Z,6.81
2023-02-18T04:11:27.722Z,6.90
2023-02-18T04:13:54.921Z,6.86
2023-02-18T04:16:21.873Z,6.92
2023-02-18T04:18:49.052Z,6.90
2023-02-18T04:21:15.917Z,6.86
2023-02-18T04:23:43.052Z,6.86
2023-02-18T04:26:10.388Z,6.87
2023-02-18T04:28:37.863Z,6.86
2023-02-18T04:31:05.118Z,6.87
2023-02-18T04:33:32.420Z,6.82
2023-02-18T04:35:59.383Z,6.76
2023-02-18T04:38:26.577Z,6.70
2023-02-18T04:40:53.619Z,6.67
2023-02-18T04:43:20.835Z,6.64
2023-02-18T04:45:47.758Z,6.66
2023-02-18T04:48:14.960Z,6.67
2023-02-18T04:50:42.350Z,6.68
2023-02-18T04:53:09.756Z,6.62
2023-02-18T04:55:36.708Z,6.61
2023-02-18T04:58:03.906Z,6.55
2023-02-18T05:00:30.813Z,6.56
2023-02-18T05:02:58.102Z,6.49
2023-02-18T05:05:25.004Z,6.49
2023-02-18T05:07:52.176Z,6.44
2023-02-18T05:43:18.944Z,6.51
2023-02-18T05:45:47.239Z,6.46
2023-02-18T05:48:16.240Z,6.38
2023-02-18T05:50:43.606Z,6.34
2023-02-18T05:53:14.785Z,6.36
2023-02-18T05:55:46.924Z,6.34
2023-02-18T05:58:17.203Z,6.30
2023-02-18T06:00:45.055Z,6.33
2023-02-18T06:03:12.787Z,6.27
2023-02-18T06:05:40.772Z,6.27
2023-02-18T06:08:12.781Z,6.28
2023-02-18T06:10:40.861Z,6.32
2023-02-18T06:13:07.805Z,6.33
2023-02-18T06:15:34.958Z,6.35
2023-02-18T06:18:01.816Z,6.43
2023-02-18T06:20:29.043Z,6.58
2023-02-18T06:22:55.968Z,6.80
2023-02-18T06:25:23.158Z,7.08
2023-02-18T06:27:50.049Z,7.28
2023-02-18T06:30:17.540Z,7.33
2023-02-18T06:32:44.769Z,7.35
2023-02-18T06:35:12.261Z,7.31
2023-02-18T06:37:39.135Z,7.34
2023-02-18T06:40:07.318Z,7.48
2023-02-18T06:42:34.248Z,7.70
2023-02-18T06:45:01.462Z,7.99
2023-02-18T06:47:28.568Z,8.42
2023-02-18T06:49:55.728Z,8.69
2023-02-18T06:52:22.597Z,9.05
2023-02-18T06:54:49.828Z,9.69
2023-02-18T06:57:16.727Z,10.06
2023-02-18T06:59:44.217Z,10.35
2023-02-18T07:02:13.618Z,10.80
2023-02-18T07:04:40.837Z,11.09
2023-02-18T07:07:07.832Z,11.52
2023-02-18T07:09:35.026Z,11.60
2023-02-18T07:12:02.031Z,11.77
2023-02-18T07:14:29.275Z,11.69
2023-02-18T07:16:56.379Z,11.75
2023-02-18T07:19:23.628Z,11.82
2023-02-18T07:21:50.894Z,11.44
2023-02-18T07:24:18.416Z,11.76
2023-02-18T07:26:45.273Z,11.77
2023-02-18T07:29:12.553Z,11.60
2023-02-18T07:31:39.591Z,11.91
2023-02-18T07:34:06.796Z,12.33
2023-02-18T07:36:33.695Z,12.56
2023-02-18T07:39:00.926Z,12.41
2023-02-18T07:41:27.880Z,12.23
2023-02-18T07:44:00.695Z,12.20
2023-02-18T07:46:27.655Z,12.22
2023-02-18T07:48:55.021Z,12.14
2023-02-18T07:51:21.932Z,12.42
2023-02-18T07:53:49.142Z,12.68
2023-02-18T07:56:16.108Z,12.31
2023-02-18T07:58:43.320Z,12.15
2023-02-18T08:01:14.894Z,12.29
2023-02-18T08:03:43.079Z,12.58
2023-02-18T08:06:25.322Z,12.80
2023-02-18T08:08:52.596Z,12.72
2023-02-18T08:11:19.914Z,12.71
2023-02-18T08:13:48.990Z,13.20
2023-02-18T08:16:18.250Z,13.45
2023-02-18T08:18:47.887Z,13.84
2023-02-18T08:21:15.446Z,13.99
2023-02-18T08:23:42.922Z,13.48
2023-02-18T08:26:10.628Z,13.19
2023-02-18T08:28:38.078Z,13.22
2023-02-18T08:31:05.131Z,13.19
2023-02-18T08:33:33.562Z,12.45
2023-02-18T08:36:00.446Z,12.22
2023-02-18T08:38:27.604Z,12.25
2023-02-18T08:41:02.970Z,12.61
2023-02-18T08:43:31.652Z,12.87
2023-02-18T08:45:59.412Z,12.95
2023-02-18T08:48:27.295Z,13.13
2023-02-18T08:50:54.250Z,13.38
2023-02-18T08:53:22.024Z,13.54
2023-02-18T08:55:48.913Z,13.88
2023-02-18T08:58:17.341Z,13.52
2023-02-18T09:00:45.430Z,13.51
2023-02-18T09:03:16.325Z,13.73
2023-02-18T09:05:43.357Z,13.76
2023-02-18T09:08:10.686Z,14.20
2023-02-18T09:10:39.503Z,14.36
2023-02-18T09:13:06.696Z,14.30
2023-02-18T09:15:33.643Z,13.96
2023-02-18T09:18:00.975Z,13.80
2023-02-18T09:20:28.378Z,13.51
2023-02-18T09:22:55.749Z,13.91
2023-02-18T09:29:24.058Z,14.23
2023-02-18T09:31:51.106Z,14.36
2023-02-18T09:34:19.252Z,14.12
2023-02-18T09:36:46.306Z,14.30
2023-02-18T09:39:14.073Z,14.53
2023-02-18T09:41:50.330Z,14.31
2023-02-18T09:44:40.633Z,14.01
2023-02-18T09:47:21.777Z,13.87
2023-02-18T09:49:54.449Z,14.17
2023-02-18T09:52:29.133Z,14.35
2023-02-18T09:54:56.856Z,14.47
2023-02-18T09:57:29.669Z,14.03
2023-02-18T10:00:13.122Z,13.66
2023-02-18T10:02:41.881Z,13.88
2023-02-18T10:05:15.193Z,13.87
2023-02-18T10:07:43.070Z,13.72
2023-02-18T10:10:34.837Z,13.64
2023-02-18T10:13:06.543Z,13.34
2023-02-18T10:15:34.290Z,13.38
2023-02-18T10:18:02.364Z,13.80
2023-02-18T10:20:32.213Z,13.91
2023-02-18T10:23:02.397Z,14.11
2023-02-18T10:25:30.878Z,14.31
2023-02-18T10:28:00.133Z,14.65
2023-02-18T10:30:36.238Z,14.53
2023-02-18T10:33:21.112Z,14.73
2023-02-18T10:36:02.759Z,14.67
2023-02-18T10:38:50.520Z,14.78
2023-02-18T10:41:27.819Z,14.53
2023-02-18T10:44:36.624Z,14.16
2023-02-18T10:47:13.107Z,13.17
2023-02-18T10:50:04.810Z,13.18
2023-02-18T10:52:38.436Z,13.27
2023-02-18T10:55:11.804Z,13.15
2023-02-18T10:57:54.093Z,13.51
2023-02-18T11:00:27.318Z,13.99
2023-02-18T11:03:08.075Z,14.67
2023-02-18T11:05:36.737Z,14.49
2023-02-18T11:08:09.712Z,14.45
2023-02-18T11:10:40.337Z,14.51
2023-02-18T11:13:09.519Z,14.31
2023-02-18T11:15:37.320Z,14.46
2023-02-18T11:18:25.899Z,14.39
2023-02-18T11:20:58.323Z,13.93
2023-02-18T11:23:25.801Z,13.71
2023-02-18T11:26:15.080Z,13.47
2023-02-18T11:28:44.949Z,13.50
2023-02-18T11:31:20.029Z,13.59
2023-02-18T11:34:02.526Z,13.17
2023-02-18T11:36:32.198Z,13.18
2023-02-18T11:39:07.533Z,13.24
2023-02-18T11:41:39.894Z,13.52
2023-02-18T11:55:16.523Z,13.49
2023-02-18T11:57:49.093Z,13.20
2023-02-18T12:00:38.092Z,12.62
2023-02-18T12:03:24.633Z,12.51
2023-02-18T12:05:52.251Z,12.42
2023-02-18T12:08:30.331Z,11.61
2023-02-18T12:11:07.285Z,11.09
2023-02-18T12:13:48.377Z,10.65
2023-02-18T12:16:37.308Z,10.39
2023-02-18T12:19:37.276Z,10.09
2023-02-18T12:22:37.823Z,9.70
2023-02-18T12:25:37.633Z,9.55
2023-02-18T12:28:48.761Z,9.20
2023-02-18T12:31:23.035Z,9.23
2023-02-18T12:34:17.352Z,9.22
2023-02-18T12:36:59.839Z,9.15
2023-02-18T12:39:36.188Z,9.07
2023-02-18T12:42:06.367Z,9.11
2023-02-18T12:45:09.977Z,9.20
2023-02-18T12:48:14.736Z,9.47
2023-02-18T12:50:51.956Z,9.60
2023-02-18T12:53:58.598Z,9.69
2023-02-18T12:56:34.574Z,9.62
2023-02-18T12:59:33.919Z,9.63
2023-02-18T13:02:21.924Z,9.46
2023-02-18T13:05:19.802Z,9.32
2023-02-18T13:08:02.044Z,9.14
2023-02-18T13:10:42.264Z,9.03
2023-02-18T13:13:11.785Z,8.97
2023-02-18T13:15:48.099Z,9.04
2023-02-18T13:18:33.808Z,9.10
2023-02-18T13:21:06.099Z,9.09
2023-02-18T13:23:40.364Z,9.10
2023-02-18T13:26:14.098Z,9.09
2023-02-18T13:28:43.780Z,9.09
2023-02-18T13:31:35.862Z,9.06
2023-02-18T13:34:12.336Z,8.98
2023-02-18T13:36:51.960Z,8.98
2023-02-18T13:39:21.171Z,8.94
2023-02-18T13:41:50.090Z,8.88
2023-02-18T13:44:22.630Z,8.89
2023-02-18T13:46:56.483Z,8.73
2023-02-18T13:49:32.211Z,8.65
2023-02-18T13:52:02.106Z,8.54
2023-02-18T13:54:44.954Z,8.45
2023-02-18T13:57:19.371Z,8.28
2023-02-18T13:59:51.230Z,8.04
2023-02-18T14:02:21.531Z,7.87
2023-02-18T14:04:51.016Z,7.82
2023-02-18T14:07:27.728Z,7.80
2023-02-18T14:10:00.488Z,7.77
2023-02-18T14:12:44.318Z,7.81
2023-02-18T14:15:20.278Z,7.84
2023-02-18T14:18:09.326Z,7.78
2023-02-18T14:20:38.901Z,7.76
2023-02-18T14:23:19.207Z,7.69
2023-02-18T14:25:52.260Z,7.62
2023-02-18T14:28:34.475Z,7.64
2023-02-18T14:31:30.446Z,7.66
2023-02-18T14:34:01.061Z,7.72
2023-02-18T14:37:00.230Z,7.78
2023-02-18T14:39:52.231Z,7.78
2023-02-18T14:42:51.340Z,7.78
2023-02-18T14:45:32.858Z,7.80
2023-02-18T14:48:24.074Z,7.74
2023-02-18T14:50:53.048Z,7.66
2023-02-18T14:53:22.885Z,7.63
2023-02-18T14:55:55.030Z,7.54
2023-02-18T14:58:36.304Z,7.50
2023-02-18T15:01:29.220Z,7.43
2023-02-18T15:03:57.477Z,7.37
2023-02-18T15:06:36.619Z,7.33
2023-02-18T15:09:23.761Z,7.29
2023-02-18T15:11:57.875Z,7.32
2023-02-18T15:14:34.528Z,7.29
2023-02-18T15:17:02.809Z,7.28
2023-02-18T15:19:37.993Z,7.28
2023-02-18T15:22:05.331Z,7.24
2023-02-18T15:24:32.246Z,7.27
2023-02-18T15:27:21.352Z,7.27
2023-02-18T15:30:31.241Z,7.23
2023-02-18T15:33:00.704Z,7.19
2023-02-18T15:35:31.676Z,7.13
2023-02-18T15:38:00.825Z,7.11
2023-02-18T15:40:31.632Z,7.08
2023-02-18T15:43:04.786Z,7.01
2023-02-18T15:45:39.856Z,7.01
2023-02-18T15:48:07.597Z,6.99
2023-02-18T15:50:45.700Z,7.00
2023-02-18T15:53:16.841Z,6.99
2023-02-18T15:55:47.471Z,7.01
2023-02-18T15:58:28.508Z,7.02
2023-02-18T16:00:58.541Z,6.98
2023-02-18T16:03:46.666Z,6.95
2023-02-18T16:06:23.712Z,6.96
2023-02-18T16:09:20.145Z,6.96
2023-02-18T16:12:17.588Z,6.97
2023-02-18T16:14:49.316Z,6.98
2023-02-18T16:17:26.385Z,6.99
2023-02-18T16:20:13.743Z,7.00
2023-02-18T16:22:47.396Z,6.98
2023-02-18T16:25:16.432Z,6.97
2023-02-18T16:28:07.329Z,6.97
2023-02-18T16:30:35.547Z,6.99
2023-02-18T16:33:02.500Z,6.99
2023-02-18T16:35:47.394Z,6.99
2023-02-18T16:38:18.753Z,6.97
2023-02-18T16:40:45.994Z,6.97
2023-02-18T16:43:21.796Z,6.97
2023-02-18T16:45:55.903Z,6.95
2023-02-18T16:48:40.736Z,6.96
2023-02-18T16:51:14.233Z,6.95
2023-02-18T16:53:41.143Z,6.97
2023-02-18T16:56:16.708Z,6.95
2023-02-18T16:58:44.186Z,6.93
2023-02-18T17:01:29.630Z,6.86
2023-02-18T17:04:01.574Z,6.83
2023-02-18T17:06:29.659Z,6.81
2023-02-18T17:08:56.591Z,6.76
2023-02-18T17:11:31.433Z,6.71
2023-02-18T17:13:59.529Z,6.67
2023-02-18T17:16:27.521Z,6.62
2023-02-18T17:18:54.531Z,6.57
2023-02-18T17:21:24.516Z,6.48
2023-02-18T17:23:52.679Z,6.40
2023-02-18T17:26:28.294Z,6.32
2023-02-18T17:28:57.780Z,6.27
2023-02-18T17:31:31.887Z,6.20
2023-02-18T17:34:01.337Z,6.16
2023-02-18T17:36:28.567Z,6.09
2023-02-18T17:38:55.527Z,6.04
2023-02-18T17:41:23.120Z,5.96
2023-02-18T17:43:50.256Z,5.91
2023-02-18T17:46:18.741Z,5.87
2023-02-18T17:48:47.093Z,5.83
2023-02-18T17:51:29.695Z,5.79
2023-02-18T17:53:56.604Z,5.73
2023-02-18T17:56:23.915Z,5.64
2023-02-18T17:58:50.830Z,5.65
2023-02-18T18:01:18.801Z,5.69
2023-02-18T18:03:45.701Z,5.70
2023-02-18T18:06:21.020Z,5.69
2023-02-18T18:08:48.564Z,5.74
2023-02-18T18:11:25.903Z,5.72
2023-02-18T18:13:55.716Z,5.71
2023-02-18T18:16:23.018Z,5.75
2023-02-18T18:18:49.947Z,5.77
2023-02-18T18:21:35.315Z,5.73
2023-02-18T18:24:02.569Z,5.83
2023-02-18T18:26:30.439Z,5.80
2023-02-18T18:28:57.727Z,5.85
2023-02-18T18:31:25.265Z,5.93
2023-02-18T18:33:53.621Z,5.91
2023-02-18T18:36:24.348Z,5.94
2023-02-18T18:38:52.351Z,5.95
2023-02-18T18:41:22.500Z,5.96
2023-02-18T18:43:49.916Z,6.01
2023-02-18T18:46:18.233Z,6.01
2023-02-18T18:48:45.726Z,5.98
2023-02-18T18:51:18.690Z,5.97
2023-02-18T18:53:45.726Z,5.95
2023-02-18T18:56:13.331Z,5.98
2023-02-18T18:58:40.652Z,6.02
2023-02-18T19:01:16.056Z,6.00
2023-02-18T19:03:43.634Z,6.04
2023-02-18T19:06:11.999Z,6.01
2023-02-18T19:08:39.534Z,5.97
2023-02-18T19:11:07.082Z,6.00
2023-02-18T19:13:36.039Z,6.06
2023-02-18T19:16:15.159Z,6.06
2023-02-18T19:18:42.043Z,6.14
2023-02-18T19:21:10.077Z,6.24
2023-02-18T19:23:37.424Z,6.37
2023-02-18T19:26:05.531Z,6.56
2023-02-18T19:28:32.613Z,6.62
2023-02-18T19:31:03.351Z,6.69
2023-02-18T19:33:30.408Z,6.73
2023-02-18T19:35:57.562Z,6.78
2023-02-18T19:38:24.620Z,6.77
2023-02-18T19:40:53.972Z,6.77
2023-02-18T19:43:21.038Z,6.81
2023-02-18T19:45:48.270Z,6.86
2023-02-18T19:48:16.020Z,6.86
2023-02-18T19:50:43.868Z,6.89
2023-02-18T19:53:11.962Z,6.87
2023-02-18T19:55:39.620Z,6.87
2023-02-18T19:58:06.822Z,6.92
2023-02-18T20:00:34.453Z,6.91
2023-02-18T20:03:01.412Z,6.93
2023-02-18T20:05:29.069Z,6.96
2023-02-18T20:07:56.038Z,7.00
2023-02-18T20:10:24.483Z,6.98
2023-02-18T20:12:53.168Z,7.05
2023-02-18T20:15:21.069Z,7.06
2023-02-18T20:17:48.248Z,7.06
2023-02-18T20:20:15.492Z,7.10
2023-02-18T20:22:42.352Z,7.15
2023-02-18T20:25:09.794Z,7.17
2023-02-18T20:27:39.758Z,7.19
2023-02-18T20:30:12.791Z,7.20
2023-02-18T20:32:39.853Z,7.23
2023-02-18T20:35:07.635Z,7.28
2023-02-18T20:37:34.489Z,7.34
2023-02-18T20:40:01.668Z,7.41
2023-02-18T20:42:28.588Z,7.46
2023-02-18T20:44:55.740Z,7.49
2023-02-18T20:47:22.602Z,7.57
2023-02-18T20:49:49.985Z,7.60
2023-02-18T20:52:16.872Z,7.63
2023-02-18T20:54:44.226Z,7.64
2023-02-18T20:57:11.109Z,7.66
2023-02-18T20:59:38.413Z,7.73
2023-02-18T21:02:05.397Z,7.79
2023-02-18T21:04:32.608Z,7.81
2023-02-18T21:06:59.500Z,7.76
2023-02-18T21:09:26.810Z,7.58
2023-02-18T21:11:53.711Z,7.29
2023-02-18T21:14:20.871Z,6.96
2023-02-18T21:16:48.151Z,6.81
2023-02-18T21:19:17.882Z,6.69
2023-02-18T21:21:47.293Z,6.52
2023-02-18T21:24:14.611Z,6.47
2023-02-18T21:26:42.786Z,6.43
2023-02-18T21:29:10.451Z,6.34
2023-02-18T21:31:40.342Z,6.32
2023-02-18T21:34:13.999Z,6.30
2023-02-18T21:36:41.753Z,6.24
2023-02-18T21:39:10.497Z,6.21
2023-02-18T21:41:40.834Z,6.27
2023-02-18T21:44:09.839Z,6.23
2023-02-18T21:46:37.166Z,6.23
2023-02-18T21:49:06.060Z,6.21
2023-02-18T21:51:53.136Z,6.22
2023-02-18T21:54:23.652Z,6.24
2023-02-18T21:56:51.962Z,6.28
2023-02-18T21:59:21.051Z,6.30
2023-02-18T22:01:48.540Z,6.28
2023-02-18T22:04:16.317Z,6.30
2023-02-18T22:06:43.387Z,6.33
2023-02-18T22:09:11.154Z,6.35
2023-02-18T22:11:42.089Z,6.38
2023-02-18T22:14:11.407Z,6.40
2023-02-18T22:16:38.401Z,6.42
2023-02-18T22:19:05.832Z,6.41
2023-02-18T22:21:32.850Z,6.43
2023-02-18T22:24:00.013Z,6.40
2023-02-18T22:26:27.011Z,6.42
2023-02-18T22:28:55.692Z,6.41
2023-02-18T22:31:24.406Z,6.46
2023-02-18T22:33:52.536Z,6.43
2023-02-18T22:36:21.195Z,6.41
2023-02-18T22:38:48.926Z,6.41
2023-02-18T22:41:18.220Z,6.40
2023-02-18T22:43:45.887Z,6.38
2023-02-18T22:46:16.462Z,6.42
2023-02-18T22:48:44.067Z,6.39
2023-02-18T22:51:14.528Z,6.35
2023-02-18T22:53:42.989Z,6.35
2023-02-18T22:56:16.236Z,6.29
2023-02-18T22:58:43.670Z,6.30
2023-02-18T23:01:24.290Z,6.32
2023-02-18T23:03:52.817Z,6.28
2023-02-18T23:06:21.133Z,6.28
2023-02-18T23:08:49.070Z,6.28
2023-02-18T23:11:19.189Z,6.24
2023-02-18T23:14:07.817Z,6.23
2023-02-18T23:16:56.120Z,6.21
2023-02-18T23:19:25.839Z,6.16
2023-02-18T23:21:52.880Z,6.14
2023-02-18T23:24:20.857Z,6.14
2023-02-18T23:26:48.292Z,6.14
2023-02-18T23:29:16.132Z,6.13
2023-02-18T23:31:43.287Z,6.13
2023-02-18T23:34:16.043Z,6.12
2023-02-18T23:36:43.792Z,6.09
2023-02-18T23:39:13.663Z,6.07
2023-02-18T23:41:40.758Z,6.00
2023-02-18T23:44:10.709Z,6.01
2023-02-18T23:46:37.945Z,6.02
2023-02-18T23:49:05.694Z,5.99
2023-02-18T23:51:33.528Z,5.98
2023-02-18T23:54:03.682Z,5.94
2023-02-18T23:56:30.750Z,5.89
2023-02-18T23:59:02.682Z,5.86
